Whiteville, NC (28472)

9:58 AM EDT on July 30, 2016 (GMT -0400)
CCSkywatch | | Change Station
Active Advisory: Heat Advisory Active Notice: Record Report

Elev 91 ft 34.41 °N, 78.75 °W | Updated 3 seconds ago

Clear
Clear
88.0 °F
Feels Like 102 °F
N
1.0
Wind Variable Wind from WSW
Gusts 5.0 mph

Today
High -- | Low -- °F
--% Chance of Precip.
Yesterday
High -- | Low -- °F
Precip. -- in
Pressure 29.99 in
Visibility 10.0 miles
Clouds Clear
Heat Index 102 °F
Dew Point 78 °F
Humidity 73%
Rainfall 0.00 in
Snow Depth Not available.
6:24 AM 8:17 PM
Waning Crescent, 13% visible
METAR KCPC 301340Z AUTO 25003KT 10SM CLR 30/25 A2999 RMK AO2 T03010251
Pressure 29.99 in
Visibility 10.0 miles
Clouds Clear
Heat Index 102 °F
Dew Point 78 °F
Humidity 73%
Rainfall 0.00 in
Snow Depth Not available.
6:24 AM 8:17 PM
Waning Crescent, 13% visible
METAR KCPC 301340Z AUTO 25003KT 10SM CLR 30/25 A2999 RMK AO2 T03010251

10-Day Weather Forecast

Almanac

Astronomy

Jul. 30, 2016 Rise Set
Actual Time
Civil Twilight
Nautical Twilight
Astronomical Twilight
Moon
Length of Visible Light
Length of Day
Tomorrow will be .
, % of the Moon is Illuminated

Today's Extremes

State Highs State Lows

Community

WunderPhotos

Upload Photos

1,928,560 photos uploaded!

WunderBlog® & News

Nearby

Air Quality

  Air Quality AQ Index Pollutant
Not available.

Snow Depth

Station Depth Elevation

Earthquake Activity

City Distance Mag. Time & Date
Minimum magnitude displayed is 2.5.

Coastal Water Temperatures

Place Temperature

Stations

Nearby Weather Stations

Station Location Temp. Windchill Dew Point Humidity Wind Precip. Elev Updated Type
                   

Watches & Warnings

Heat Advisory
Issued: 3:23 AM EDT Jul. 30, 2016 – National Weather Service

... Heat advisory remains in effect from noon today to 8 PM EDT
this evening...

* heat index values... up to 107 due to temperatures in the lower
90s... and dewpoints in the lower 70s.

* Timing... the highest sustained heat index values will occur in
the mid to late afternoon hours.

* Impacts... the combination of hot temperatures and high
humidity will create a situation in which heat illnesses are
possible. If you suspect someone having a heat stroke... call
911 immediately.

Precautionary/preparedness actions...

A heat advisory means that a period of hot temperatures is
expected. The combination of hot temperatures and high humidity
will create a situation in which heat illnesses are possible. To
reduce the risk of heat illness during outdoor work the
occupational safety and health administration recommends
scheduling frequent rest breaks in shaded or air conditioned
environments.



7